Time;durP1;ratioP1;P1;durP2;ratioP2;P2;SDS_P1;SDS_P2;PMS_P1;PMS_P2;Temp;Humidity;BMP_temperature;BMP_pressure;BME280_temperature;BME280_humidity;BME280_pressure;Samples;Min_cycle;Max_cycle;Signal;HPM_P1;HPM_P2
2023/05/10 09:33:45;;;;;;;2.50;1.40;;;;;;;31.65;17.50;97374.31;10668343;27;20115;-74
2023/05/10 09:39:07;;;;;;;2.90;1.40;;;;;;;29.69;19.25;97363.38;10627644;27;20557;-73
2023/05/10 09:44:28;;;;;;;2.13;1.30;;;;;;;30.83;19.31;97352.91;10629381;27;20039;-71
2023/05/10 09:49:51;;;;;;;2.72;1.17;;;;;;;31.23;18.77;97353.56;10641728;27;20703;-71
2023/05/10 09:55:12;;;;;;;4.10;1.27;;;;;;;29.13;20.24;97353.31;10595920;28;20455;-72
2023/05/10 10:00:44;;;;;;;1.95;1.20;;;;;;;28.06;21.99;97352.91;10647617;27;20049;-75
2023/05/10 10:06:07;;;;;;;3.75;1.27;;;;;;;26.28;23.69;97355.03;10613675;27;20131;-69
2023/05/10 10:11:42;;;;;;;4.13;1.40;;;;;;;25.71;24.24;97350.00;10613424;27;20039;-70
2023/05/10 10:17:04;;;;;;;2.97;1.27;;;;;;;25.16;25.45;97343.41;10630214;27;20416;-71
2023/05/10 10:22:28;;;;;;;4.53;1.27;;;;;;;24.93;25.90;97328.28;10655607;27;20441;-70
2023/05/10 10:27:53;;;;;;;4.65;2.22;;;;;;;24.27;26.14;97347.84;10650778;27;20047;-71
2023/05/10 10:33:34;;;;;;;3.88;1.20;;;;;;;23.90;26.80;97343.28;10673146;27;20381;-70
2023/05/10 10:39:02;;;;;;;1.83;1.20;;;;;;;24.18;26.86;97340.66;10629294;27;20044;-70
2023/05/10 10:44:31;;;;;;;1.73;1.17;;;;;;;24.52;26.42;97336.66;10608210;27;20499;-71
2023/05/10 10:50:03;;;;;;;2.33;1.08;;;;;;;24.02;27.08;97337.69;10634422;27;20074;-70
2023/05/10 10:55:26;;;;;;;4.77;1.40;;;;;;;24.32;26.93;97330.78;10645221;27;20043;-70
2023/05/10 11:00:48;;;;;;;2.95;1.13;;;;;;;25.31;26.96;97317.03;10596601;27;20122;-70
2023/05/10 11:06:09;;;;;;;3.60;1.25;;;;;;;25.31;25.34;97319.19;10620374;27;20062;-69
2023/05/10 11:11:30;;;;;;;3.17;1.52;;;;;;;25.20;25.38;97309.88;10618687;27;20504;-70
2023/05/10 11:16:53;;;;;;;3.55;1.20;;;;;;;25.31;25.07;97317.03;10624117;27;20043;-70
2023/05/10 11:22:14;;;;;;;2.50;1.30;;;;;;;25.60;25.04;97319.94;10627587;27;20552;-73
2023/05/10 11:27:37;;;;;;;2.13;1.08;;;;;;;24.79;26.09;97309.66;10612988;27;20043;-74
2023/05/10 11:32:59;;;;;;;2.92;1.35;;;;;;;25.69;25.44;97324.25;10612696;27;20062;-76
2023/05/10 11:38:20;;;;;;;2.00;1.02;;;;;;;25.96;24.74;97305.72;10597981;27;20420;-72
2023/05/10 11:43:42;;;;;;;3.17;1.30;;;;;;;25.89;24.31;97320.72;10611985;27;20043;-74
2023/05/10 11:49:06;;;;;;;2.85;1.30;;;;;;;26.25;24.99;97311.41;10598141;27;20461;-76
2023/05/10 11:54:27;;;;;;;1.55;1.10;;;;;;;25.55;25.01;97318.50;10611712;27;20469;-75
2023/05/10 11:59:53;;;;;;;2.28;1.10;;;;;;;24.95;25.64;97319.72;10645009;27;20432;-76
2023/05/10 12:05:14;;;;;;;4.55;0.95;;;;;;;24.34;26.00;97311.56;10631442;27;20039;-77
2023/05/10 12:10:35;;;;;;;2.38;1.08;;;;;;;23.88;26.98;97315.47;10645686;27;20036;-76
2023/05/10 12:16:00;;;;;;;3.55;1.02;;;;;;;22.68;28.36;97316.25;10646708;27;20074;-86
2023/05/10 12:21:22;;;;;;;2.28;1.23;;;;;;;21.98;29.79;97326.59;10641438;27;20074;-79
2023/05/10 12:26:44;;;;;;;2.40;1.23;;;;;;;21.88;30.19;97326.44;10627627;27;20541;-78
2023/05/10 12:32:40;;;;;;;2.03;1.20;;;;;;;21.78;30.73;97326.28;10606132;27;20054;-72
2023/05/10 12:38:01;;;;;;;2.15;1.00;;;;;;;21.55;30.75;97330.88;10627099;27;20058;-74
2023/05/10 12:43:22;;;;;;;4.57;1.27;;;;;;;21.03;31.68;97336.22;10640941;27;20039;-71
2023/05/10 12:48:44;;;;;;;4.10;1.17;;;;;;;20.80;32.73;97329.38;10626751;27;20035;-72
2023/05/10 12:54:08;;;;;;;4.10;1.40;;;;;;;20.75;33.69;97331.44;10624437;27;20035;-71
2023/05/10 12:59:31;;;;;;;3.03;1.25;;;;;;;20.93;33.35;97330.34;10626468;27;20053;-71
2023/05/10 13:04:52;;;;;;;3.28;1.33;;;;;;;20.87;33.47;97345.13;10611566;27;20435;-73
2023/05/10 13:10:14;;;;;;;2.88;1.20;;;;;;;21.23;33.32;97333.81;10613037;27;20059;-75
2023/05/10 13:15:35;;;;;;;4.13;1.55;;;;;;;21.28;32.93;97332.50;10629727;27;20043;-75
2023/05/10 13:20:57;;;;;;;3.72;1.45;;;;;;;21.46;33.02;97334.22;10629600;27;20122;-74
2023/05/10 13:26:19;;;;;;;2.33;1.20;;;;;;;21.64;33.02;97320.38;10619128;27;20049;-74
2023/05/10 13:31:40;;;;;;;3.60;1.33;;;;;;;21.75;32.88;97329.78;10622965;28;20078;-75
2023/05/10 13:37:02;;;;;;;4.00;1.50;;;;;;;21.68;32.92;97335.34;10594706;28;20072;-73
2023/05/10 13:42:23;;;;;;;3.63;1.60;;;;;;;21.50;33.09;97334.31;10594338;28;20067;-75
2023/05/10 13:47:45;;;;;;;3.80;1.40;;;;;;;21.51;33.27;97327.22;10566261;28;20067;-73
2023/05/10 13:53:06;;;;;;;4.20;1.75;;;;;;;21.53;33.29;97325.16;10537702;28;20097;-74
2023/05/10 13:58:27;;;;;;;4.13;1.70;;;;;;;21.54;33.33;97323.75;10566129;28;20077;-73
2023/05/10 14:03:49;;;;;;;1.65;1.30;;;;;;;21.50;33.83;97314.44;10551307;28;20454;-72
2023/05/10 14:09:10;;;;;;;4.15;1.50;;;;;;;21.77;33.51;97329.81;10551691;28;20424;-72
2023/05/10 14:14:31;;;;;;;4.63;1.60;;;;;;;21.41;33.74;97317.13;10551423;28;20040;-73
2023/05/10 14:19:53;;;;;;;4.68;1.77;;;;;;;21.12;33.93;97312.28;10588946;27;20035;-74
2023/05/10 14:25:14;;;;;;;2.22;1.40;;;;;;;20.95;34.23;97316.94;10615890;27;20054;-73
2023/05/10 14:30:36;;;;;;;4.20;1.50;;;;;;;20.80;34.57;97315.19;10613488;27;20062;-74
2023/05/10 14:35:57;;;;;;;2.55;1.52;;;;;;;20.64;34.79;97326.91;10573216;28;20477;-74
2023/05/10 14:41:18;;;;;;;2.25;1.73;;;;;;;20.53;35.13;97314.63;10572492;28;20047;-73
2023/05/10 14:46:40;;;;;;;3.13;1.77;;;;;;;20.53;35.52;97311.81;10572445;28;20455;-75
2023/05/10 14:52:01;;;;;;;2.08;1.58;;;;;;;20.64;35.75;97326.19;10558264;28;20070;-70
2023/05/10 14:57:22;;;;;;;4.57;1.77;;;;;;;20.91;35.47;97331.03;10571881;28;20036;-76
2023/05/10 15:02:43;;;;;;;6.45;2.65;;;;;;;20.47;37.12;97328.69;10571630;28;20087;-76
2023/05/10 15:08:05;;;;;;;4.88;2.08;;;;;;;20.12;38.56;97335.66;10543702;28;20058;-74
2023/05/10 15:13:26;;;;;;;3.92;1.60;;;;;;;20.02;39.14;97341.06;10571399;28;20036;-70
2023/05/10 15:18:48;;;;;;;5.25;2.15;;;;;;;20.10;39.71;97349.06;10571624;28;20053;-70
2023/05/10 15:24:10;;;;;;;5.75;2.55;;;;;;;20.21;40.20;97345.78;10584995;28;20066;-72
2023/05/10 15:29:32;;;;;;;6.68;2.22;;;;;;;20.11;39.93;97356.16;10568648;27;20113;-71
2023/05/10 15:34:54;;;;;;;4.73;2.60;;;;;;;19.78;40.49;97357.47;10576403;27;20055;-71
2023/05/10 15:40:15;;;;;;;4.47;2.60;;;;;;;19.45;41.58;97359.44;10596003;27;20877;-71
2023/05/10 15:45:38;;;;;;;4.25;2.78;;;;;;;19.30;42.04;97360.44;10605425;27;21787;-74
2023/05/10 15:50:59;;;;;;;7.82;2.88;;;;;;;19.31;43.30;97347.75;10593989;27;20092;-75
2023/05/10 15:56:21;;;;;;;5.05;2.63;;;;;;;19.52;43.39;97352.53;10567356;27;20035;-73
2023/05/10 16:01:42;;;;;;;4.30;2.60;;;;;;;19.61;43.30;97359.91;10597340;27;20412;-84
2023/05/10 16:07:03;;;;;;;6.32;2.55;;;;;;;19.51;43.97;97356.06;10625987;27;20130;-78
2023/05/10 16:12:25;;;;;;;4.10;2.33;;;;;;;19.89;44.15;97354.22;10609053;27;20043;-73
2023/05/10 16:17:46;;;;;;;6.85;2.45;;;;;;;20.25;43.66;97359.31;10597006;27;20100;-71
2023/05/10 16:23:07;;;;;;;3.45;2.60;;;;;;;20.47;43.51;97351.38;10596479;27;20050;-73
2023/05/10 16:28:28;;;;;;;5.43;2.28;;;;;;;20.57;43.32;97359.38;10610822;27;20043;-72
2023/05/10 16:33:49;;;;;;;6.40;2.80;;;;;;;20.66;43.20;97358.16;10595693;27;20059;-70
2023/05/10 16:39:10;;;;;;;4.10;2.45;;;;;;;20.62;42.41;97366.56;10624126;27;20072;-70
2023/05/10 16:44:31;;;;;;;5.38;2.38;;;;;;;20.45;42.53;97359.09;10604125;27;20035;-70
2023/05/10 16:49:52;;;;;;;8.77;2.13;;;;;;;20.48;42.82;97366.97;10591232;27;20100;-73
2023/05/10 16:55:12;;;;;;;4.07;2.67;;;;;;;20.37;42.79;97370.25;10553180;28;20495;-72
2023/05/10 17:00:33;;;;;;;4.80;2.70;;;;;;;20.41;42.98;97376.72;10571037;27;20042;-69
2023/05/10 17:05:54;;;;;;;4.25;2.58;;;;;;;20.43;42.69;97378.91;10580686;28;20504;-78
2023/05/10 17:11:16;;;;;;;6.70;2.63;;;;;;;20.13;42.92;97390.91;10566988;28;20401;-70
2023/05/10 17:16:36;;;;;;;7.68;3.28;;;;;;;20.03;42.99;97396.34;10581018;28;20085;-70
2023/05/10 17:21:57;;;;;;;3.38;3.00;;;;;;;19.71;43.27;97399.78;10592260;27;20392;-68
2023/05/10 17:27:18;;;;;;;6.95;2.95;;;;;;;19.45;43.78;97399.06;10608824;27;20043;-68
2023/05/10 17:32:39;;;;;;;5.82;2.95;;;;;;;19.29;44.30;97404.97;10608823;28;20047;-69
2023/05/10 17:38:01;;;;;;;4.38;2.88;;;;;;;18.86;44.84;97412.25;10608351;28;20481;-73
2023/05/10 17:43:22;;;;;;;6.68;3.78;;;;;;;18.62;45.66;97422.06;10590897;28;20040;-71
2023/05/10 17:48:42;;;;;;;7.15;3.38;;;;;;;18.43;45.97;97421.50;10612981;28;20035;-73
2023/05/10 17:54:03;;;;;;;10.20;3.70;;;;;;;18.40;46.66;97430.56;10571908;28;20039;-75
2023/05/10 17:59:24;;;;;;;6.53;3.38;;;;;;;18.27;46.58;97432.28;10589058;27;20040;-70
2023/05/10 18:04:45;;;;;;;7.28;3.80;;;;;;;18.06;47.25;97438.66;10591115;27;20046;-71
2023/05/10 18:10:07;;;;;;;5.28;3.22;;;;;;;17.77;47.08;97451.09;10616484;27;20043;-70
2023/05/10 18:15:27;;;;;;;5.70;3.13;;;;;;;17.53;48.33;97448.09;10601651;27;20090;-70
2023/05/10 18:20:55;;;;;;;4.93;3.30;;;;;;;17.23;48.46;97444.91;10615645;27;20051;-76
2023/05/10 18:26:16;;;;;;;4.55;3.30;;;;;;;17.02;48.67;97449.78;10616360;27;20073;-69
2023/05/10 18:31:38;;;;;;;8.25;3.83;;;;;;;16.79;48.91;97456.69;10615764;27;20382;-71
2023/05/10 18:36:58;;;;;;;8.15;3.80;;;;;;;16.46;49.99;97470.81;10600940;27;20043;-71
2023/05/10 18:42:19;;;;;;;7.63;3.75;;;;;;;16.19;51.66;97460.56;10614725;27;20114;-72
2023/05/10 18:47:40;;;;;;;7.03;3.40;;;;;;;15.98;51.70;97475.91;10615069;27;20043;-73
2023/05/10 18:53:02;;;;;;;5.85;3.70;;;;;;;15.64;52.37;97487.16;10601048;27;20048;-69
2023/05/10 18:58:24;;;;;;;4.78;3.50;;;;;;;15.42;53.25;97500.91;10598257;27;20118;-69
2023/05/10 19:03:45;;;;;;;8.05;6.38;;;;;;;15.28;54.17;97505.19;10628592;27;20039;-71
2023/05/10 19:09:07;;;;;;;6.15;3.33;;;;;;;15.14;54.64;97503.16;10628042;27;20035;-70
2023/05/10 19:14:28;;;;;;;6.30;3.67;;;;;;;15.07;54.82;97509.88;10614468;27;20057;-71
2023/05/10 19:19:49;;;;;;;6.57;4.20;;;;;;;14.95;55.48;97517.72;10604131;27;20059;-70
2023/05/10 19:25:11;;;;;;;6.75;4.22;;;;;;;14.85;55.87;97523.59;10590990;27;20596;-69
2023/05/10 19:30:32;;;;;;;8.93;5.00;;;;;;;14.70;56.96;97538.34;10609750;27;20598;-70
2023/05/10 19:35:53;;;;;;;6.80;4.70;;;;;;;14.57;57.02;97525.81;10626669;27;20165;-68
2023/05/10 19:41:14;;;;;;;7.50;4.72;;;;;;;14.51;57.14;97530.38;10624213;27;20148;-68
2023/05/10 19:46:35;;;;;;;7.68;5.13;;;;;;;14.49;57.24;97542.25;10627103;27;20095;-68
2023/05/10 19:51:56;;;;;;;8.63;5.35;;;;;;;14.43;57.77;97544.00;10612557;27;20114;-68
2023/05/10 19:57:17;;;;;;;10.45;5.85;;;;;;;14.41;58.51;97541.09;10612362;27;20047;-67
2023/05/10 20:02:38;;;;;;;8.68;4.72;;;;;;;14.43;58.78;97547.53;10610701;27;20156;-69
2023/05/10 20:07:58;;;;;;;11.25;4.82;;;;;;;14.48;59.09;97543.63;10621943;27;20165;-67
2023/05/10 20:13:19;;;;;;;6.20;4.78;;;;;;;14.57;59.97;97544.72;10620414;27;20062;-68
2023/05/10 20:18:40;;;;;;;10.00;5.55;;;;;;;14.66;59.09;97545.84;10622847;27;20071;-67
2023/05/10 20:24:01;;;;;;;7.85;4.68;;;;;;;14.70;59.54;97540.44;10606569;27;20110;-67
2023/05/10 20:29:21;;;;;;;7.03;4.97;;;;;;;14.74;59.85;97546.94;10605961;27;20138;-68
2023/05/10 20:34:42;;;;;;;11.77;5.35;;;;;;;14.80;59.90;97540.91;10617588;27;20115;-67
2023/05/10 20:40:04;;;;;;;13.27;8.00;;;;;;;14.86;60.02;97536.31;10620555;27;20084;-68
2023/05/10 20:45:25;;;;;;;6.70;4.88;;;;;;;14.89;60.13;97537.13;10620408;27;20063;-68
2023/05/10 20:50:45;;;;;;;7.43;4.43;;;;;;;14.92;60.39;97532.31;10591586;27;20141;-67
2023/05/10 20:56:06;;;;;;;5.97;4.25;;;;;;;15.00;60.34;97527.09;10591573;27;20062;-68
2023/05/10 21:01:27;;;;;;;6.45;4.70;;;;;;;15.08;60.03;97530.28;10620154;27;20168;-68
2023/05/10 21:06:48;;;;;;;8.05;5.45;;;;;;;14.92;60.32;97533.06;10609616;27;20460;-67
2023/05/10 21:12:08;;;;;;;8.40;5.60;;;;;;;14.84;61.04;97522.16;10624875;27;20142;-68
2023/05/10 21:17:29;;;;;;;8.50;6.15;;;;;;;14.80;61.31;97518.44;10609349;27;20160;-68
2023/05/10 21:22:50;;;;;;;7.32;5.50;;;;;;;14.79;61.51;97528.22;10623360;27;20452;-68
2023/05/10 21:28:10;;;;;;;9.18;6.78;;;;;;;14.73;62.78;97527.91;10594857;27;20119;-67
2023/05/10 21:33:31;;;;;;;9.90;6.55;;;;;;;14.72;63.04;97543.31;10622965;27;20138;-68
2023/05/10 21:38:52;;;;;;;9.77;6.32;;;;;;;14.68;62.91;97537.53;10609066;28;20119;-67
2023/05/10 21:44:13;;;;;;;11.52;6.65;;;;;;;14.69;62.78;97541.78;10623095;28;20077;-67
2023/05/10 21:49:33;;;;;;;12.95;7.40;;;;;;;14.67;63.40;97536.81;10623000;28;20073;-67
2023/05/10 21:54:54;;;;;;;11.55;7.03;;;;;;;14.61;63.67;97528.06;10623976;28;20168;-68
2023/05/10 22:00:16;;;;;;;12.35;6.45;;;;;;;14.67;63.47;97533.25;10622877;28;20141;-68
2023/05/10 22:05:37;;;;;;;9.32;6.43;;;;;;;14.69;63.66;97528.47;10623835;28;20044;-68
2023/05/10 22:10:58;;;;;;;16.15;7.13;;;;;;;14.73;63.89;97533.53;10622578;28;20043;-68
2023/05/10 22:16:19;;;;;;;11.18;6.70;;;;;;;14.72;63.36;97526.47;10622592;28;20503;-67
2023/05/10 22:21:41;;;;;;;12.90;6.90;;;;;;;14.71;63.74;97533.44;10608111;28;20072;-67
2023/05/10 22:27:02;;;;;;;8.93;6.28;;;;;;;14.72;63.79;97538.44;10623327;28;20043;-68
2023/05/10 22:32:23;;;;;;;9.07;6.15;;;;;;;14.72;63.78;97532.09;10593698;28;20111;-67
2023/05/10 22:37:43;;;;;;;11.18;6.45;;;;;;;14.76;63.67;97537.88;10609434;27;20040;-68
2023/05/10 22:43:04;;;;;;;10.32;6.18;;;;;;;14.71;63.75;97531.38;10615551;27;20070;-68
2023/05/10 22:48:24;;;;;;;10.68;6.80;;;;;;;14.65;63.83;97528.25;10615183;27;20062;-68
2023/05/10 22:53:45;;;;;;;8.77;6.20;;;;;;;14.63;63.49;97527.44;10630529;27;20062;-68
2023/05/10 22:59:06;;;;;;;12.25;6.05;;;;;;;14.60;63.47;97526.63;10614672;27;20039;-68
2023/05/10 23:04:26;;;;;;;9.48;5.18;;;;;;;14.60;63.53;97532.25;10629931;27;20118;-68
2023/05/10 23:09:47;;;;;;;10.50;5.22;;;;;;;14.60;63.32;97529.44;10586017;27;20114;-68
2023/05/10 23:15:08;;;;;;;8.07;4.78;;;;;;;14.59;62.84;97528.69;10629400;27;20507;-68
2023/05/10 23:20:29;;;;;;;6.38;4.15;;;;;;;14.59;63.00;97525.91;10629183;27;20533;-68
2023/05/10 23:25:50;;;;;;;8.25;4.35;;;;;;;14.66;62.61;97537.41;10629035;27;20510;-68
2023/05/10 23:31:11;;;;;;;8.63;4.05;;;;;;;14.65;61.79;97538.75;10613329;27;20071;-68
2023/05/10 23:36:32;;;;;;;8.65;3.65;;;;;;;14.57;61.68;97523.00;10627497;27;20066;-67
2023/05/10 23:41:53;;;;;;;7.68;3.40;;;;;;;14.58;61.34;97535.69;10613249;27;20118;-68
2023/05/10 23:47:14;;;;;;;5.20;3.28;;;;;;;14.57;61.25;97528.63;10612744;27;20081;-68
2023/05/10 23:52:35;;;;;;;7.93;3.40;;;;;;;14.53;61.05;97528.41;10627101;27;20067;-67
2023/05/10 23:57:55;;;;;;;3.90;2.67;;;;;;;14.48;60.55;97521.16;10626554;27;20555;-68
